sensor_id;sensor_type;location;lat;lon;timestamp;pressure;altitude;pressure_sealevel;temperature;humidity
64243;BME280;50573;51.512;5.386;2023-04-15T00:07:33;100488.16;;;8.80;75.24
64243;BME280;50573;51.512;5.386;2023-04-15T00:17:36;100481.94;;;8.51;78.29
64243;BME280;50573;51.512;5.386;2023-04-15T00:27:41;100472.31;;;8.30;79.76
64243;BME280;50573;51.512;5.386;2023-04-15T00:37:44;100472.91;;;8.21;80.70
64243;BME280;50573;51.512;5.386;2023-04-15T00:47:49;100470.00;;;8.12;81.16
64243;BME280;50573;51.512;5.386;2023-04-15T00:57:53;100468.06;;;7.97;82.62
64243;BME280;50573;51.512;5.386;2023-04-15T01:07:58;100473.47;;;7.81;82.85
64243;BME280;50573;51.512;5.386;2023-04-15T01:18:01;100471.88;;;7.64;83.46
64243;BME280;50573;51.512;5.386;2023-04-15T01:28:06;100469.91;;;7.48;84.47
64243;BME280;50573;51.512;5.386;2023-04-15T01:38:10;100470.94;;;7.35;84.83
64243;BME280;50573;51.512;5.386;2023-04-15T01:48:15;100467.28;;;7.25;85.90
64243;BME280;50573;51.512;5.386;2023-04-15T01:58:18;100465.75;;;7.24;84.78
64243;BME280;50573;51.512;5.386;2023-04-15T02:08:24;100467.56;;;7.11;86.68
64243;BME280;50573;51.512;5.386;2023-04-15T02:18:27;100480.88;;;7.02;87.21
64243;BME280;50573;51.512;5.386;2023-04-15T02:28:31;100485.03;;;6.87;87.83
64243;BME280;50573;51.512;5.386;2023-04-15T02:38:35;100490.22;;;6.78;88.87
64243;BME280;50573;51.512;5.386;2023-04-15T02:48:40;100502.47;;;6.63;89.91
64243;BME280;50573;51.512;5.386;2023-04-15T02:58:43;100514.09;;;6.60;90.78
64243;BME280;50573;51.512;5.386;2023-04-15T03:08:48;100507.41;;;6.45;91.38
64243;BME280;50573;51.512;5.386;2023-04-15T03:18:53;100512.91;;;6.38;91.45
64243;BME280;50573;51.512;5.386;2023-04-15T03:28:59;100521.59;;;6.26;93.20
64243;BME280;50573;51.512;5.386;2023-04-15T03:39:03;100533.38;;;6.16;93.09
64243;BME280;50573;51.512;5.386;2023-04-15T03:49:07;100541.75;;;5.95;95.48
64243;BME280;50573;51.512;5.386;2023-04-15T03:59:10;100542.31;;;5.79;95.69
64243;BME280;50573;51.512;5.386;2023-04-15T04:09:15;100550.22;;;5.63;96.79
64243;BME280;50573;51.512;5.386;2023-04-15T04:19:18;100569.22;;;5.56;99.28
64243;BME280;50573;51.512;5.386;2023-04-15T04:29:23;100589.28;;;5.58;99.77
64243;BME280;50573;51.512;5.386;2023-04-15T04:39:26;100589.69;;;5.57;100.00
64243;BME280;50573;51.512;5.386;2023-04-15T04:49:30;100615.88;;;5.60;100.00
64243;BME280;50573;51.512;5.386;2023-04-15T04:59:33;100628.56;;;5.66;100.00
64243;BME280;50573;51.512;5.386;2023-04-15T05:09:38;100638.06;;;5.78;100.00
64243;BME280;50573;51.512;5.386;2023-04-15T05:19:41;100653.75;;;5.94;100.00
64243;BME280;50573;51.512;5.386;2023-04-15T05:29:46;100677.16;;;6.07;100.00
64243;BME280;50573;51.512;5.386;2023-04-15T05:39:49;100680.63;;;6.08;100.00
64243;BME280;50573;51.512;5.386;2023-04-15T05:49:54;100709.47;;;6.18;100.00
64243;BME280;50573;51.512;5.386;2023-04-15T05:59:57;100728.38;;;6.21;100.00
64243;BME280;50573;51.512;5.386;2023-04-15T06:10:02;100738.63;;;6.37;100.00
64243;BME280;50573;51.512;5.386;2023-04-15T06:20:06;100754.94;;;6.60;100.00
64243;BME280;50573;51.512;5.386;2023-04-15T06:30:11;100767.22;;;6.98;98.59
64243;BME280;50573;51.512;5.386;2023-04-15T06:40:15;100790.88;;;7.47;96.52
64243;BME280;50573;51.512;5.386;2023-04-15T06:50:19;100811.91;;;7.86;94.45
64243;BME280;50573;51.512;5.386;2023-04-15T07:00:22;100829.97;;;8.15;93.99
64243;BME280;50573;51.512;5.386;2023-04-15T07:10:36;100840.72;;;8.46;92.60
64243;BME280;50573;51.512;5.386;2023-04-15T07:20:39;100863.06;;;8.92;91.65
64243;BME280;50573;51.512;5.386;2023-04-15T07:30:50;100871.53;;;9.33;90.13
64243;BME280;50573;51.512;5.386;2023-04-15T07:40:56;100891.63;;;9.71;88.89
64243;BME280;50573;51.512;5.386;2023-04-15T07:51:07;100904.25;;;10.14;84.19
64243;BME280;50573;51.512;5.386;2023-04-15T08:01:12;100916.31;;;10.45;80.77
64243;BME280;50573;51.512;5.386;2023-04-15T08:11:23;100924.97;;;10.56;80.80
64243;BME280;50573;51.512;5.386;2023-04-15T08:21:29;100947.69;;;10.94;77.94
64243;BME280;50573;51.512;5.386;2023-04-15T08:31:40;100955.66;;;11.30;78.14
64243;BME280;50573;51.512;5.386;2023-04-15T08:41:51;100975.66;;;11.52;75.52
64243;BME280;50573;51.512;5.386;2023-04-15T08:52:00;101003.22;;;11.95;70.38
64243;BME280;50573;51.512;5.386;2023-04-15T09:02:03;101018.00;;;12.10;69.66
64243;BME280;50573;51.512;5.386;2023-04-15T09:12:12;101047.06;;;12.41;63.64
64243;BME280;50573;51.512;5.386;2023-04-15T09:22:20;101057.75;;;12.61;64.03
64243;BME280;50573;51.512;5.386;2023-04-15T09:32:28;101083.78;;;12.53;64.58
64243;BME280;50573;51.512;5.386;2023-04-15T09:42:35;101091.41;;;12.71;62.20
64243;BME280;50573;51.512;5.386;2023-04-15T09:52:46;101096.03;;;13.20;61.31
64243;BME280;50573;51.512;5.386;2023-04-15T10:02:52;101109.34;;;13.31;61.48
64243;BME280;50573;51.512;5.386;2023-04-15T10:13:07;101117.03;;;13.23;60.85
64243;BME280;50573;51.512;5.386;2023-04-15T10:23:11;101117.69;;;13.27;61.10
64243;BME280;50573;51.512;5.386;2023-04-15T10:33:20;101138.34;;;13.62;58.94
64243;BME280;50573;51.512;5.386;2023-04-15T10:43:25;101140.91;;;13.78;58.45
64243;BME280;50573;51.512;5.386;2023-04-15T10:53:36;101132.34;;;13.76;58.14
64243;BME280;50573;51.512;5.386;2023-04-15T11:03:42;101149.94;;;14.10;57.02
64243;BME280;50573;51.512;5.386;2023-04-15T11:13:51;101155.97;;;14.05;55.15
64243;BME280;50573;51.512;5.386;2023-04-15T11:23:58;101152.31;;;14.51;54.82
64243;BME280;50573;51.512;5.386;2023-04-15T11:34:08;101171.09;;;14.61;56.00
64243;BME280;50573;51.512;5.386;2023-04-15T11:44:16;101191.47;;;14.91;54.10
64243;BME280;50573;51.512;5.386;2023-04-15T11:54:24;101181.75;;;14.99;56.98
64243;BME280;50573;51.512;5.386;2023-04-15T12:04:31;101196.66;;;14.58;58.60
64243;BME280;50573;51.512;5.386;2023-04-15T12:14:40;101217.13;;;14.66;56.04
64243;BME280;50573;51.512;5.386;2023-04-15T12:24:53;101212.72;;;15.08;57.91
64243;BME280;50573;51.512;5.386;2023-04-15T12:34:59;101244.38;;;15.40;56.56
64243;BME280;50573;51.512;5.386;2023-04-15T12:45:05;101265.88;;;14.93;55.07
64243;BME280;50573;51.512;5.386;2023-04-15T12:55:13;101262.91;;;15.18;55.42
64243;BME280;50573;51.512;5.386;2023-04-15T13:05:20;101285.78;;;15.15;53.55
64243;BME280;50573;51.512;5.386;2023-04-15T13:15:32;101283.00;;;15.46;54.79
64243;BME280;50573;51.512;5.386;2023-04-15T13:25:38;101288.53;;;15.24;54.00
64243;BME280;50573;51.512;5.386;2023-04-15T13:35:46;101297.19;;;15.53;56.20
64243;BME280;50573;51.512;5.386;2023-04-15T13:45:53;101301.81;;;14.95;56.85
64243;BME280;50573;51.512;5.386;2023-04-15T13:56:02;101326.16;;;14.84;55.57
64243;BME280;50573;51.512;5.386;2023-04-15T14:06:12;101327.97;;;15.08;57.32
64243;BME280;50573;51.512;5.386;2023-04-15T14:16:20;101350.00;;;15.57;56.53
64243;BME280;50573;51.512;5.386;2023-04-15T14:26:27;101375.47;;;15.27;56.40
64243;BME280;50573;51.512;5.386;2023-04-15T14:36:38;101378.97;;;14.97;55.27
64243;BME280;50573;51.512;5.386;2023-04-15T14:46:45;101396.94;;;14.98;54.47
64243;BME280;50573;51.512;5.386;2023-04-15T14:56:53;101409.41;;;14.90;55.54
64243;BME280;50573;51.512;5.386;2023-04-15T15:06:59;101427.13;;;15.19;56.95
64243;BME280;50573;51.512;5.386;2023-04-15T15:17:10;101440.13;;;14.17;58.57
64243;BME280;50573;51.512;5.386;2023-04-15T15:27:17;101439.69;;;14.06;58.71
64243;BME280;50573;51.512;5.386;2023-04-15T15:37:29;101449.31;;;14.23;58.72
64243;BME280;50573;51.512;5.386;2023-04-15T15:47:32;101470.22;;;13.54;60.35
64243;BME280;50573;51.512;5.386;2023-04-15T15:57:43;101501.34;;;13.60;61.51
64243;BME280;50573;51.512;5.386;2023-04-15T16:07:50;101504.38;;;13.08;64.95
64243;BME280;50573;51.512;5.386;2023-04-15T16:18:00;101522.53;;;12.70;68.52
64243;BME280;50573;51.512;5.386;2023-04-15T16:28:07;101536.88;;;12.26;69.50
64243;BME280;50573;51.512;5.386;2023-04-15T16:38:27;101548.22;;;12.24;69.16
64243;BME280;50573;51.512;5.386;2023-04-15T16:48:30;101567.78;;;11.87;71.73
64243;BME280;50573;51.512;5.386;2023-04-15T16:58:34;101575.03;;;11.55;72.33
64243;BME280;50573;51.512;5.386;2023-04-15T17:08:39;101581.44;;;11.25;74.58
64243;BME280;50573;51.512;5.386;2023-04-15T17:18:50;101595.97;;;10.99;74.94
64243;BME280;50573;51.512;5.386;2023-04-15T17:28:55;101614.50;;;10.84;76.82
64243;BME280;50573;51.512;5.386;2023-04-15T17:39:09;101613.53;;;10.71;79.45
64243;BME280;50573;51.512;5.386;2023-04-15T17:49:12;101620.34;;;10.60;78.16
64243;BME280;50573;51.512;5.386;2023-04-15T17:59:23;101625.97;;;10.46;78.83
64243;BME280;50573;51.512;5.386;2023-04-15T18:09:29;101636.66;;;10.33;80.53
64243;BME280;50573;51.512;5.386;2023-04-15T18:19:52;101652.38;;;10.22;82.49
64243;BME280;50573;51.512;5.386;2023-04-15T18:29:55;101658.88;;;10.28;82.82
64243;BME280;50573;51.512;5.386;2023-04-15T18:40:00;101673.28;;;10.29;83.73
64243;BME280;50573;51.512;5.386;2023-04-15T18:50:04;101675.09;;;10.05;85.34
64243;BME280;50573;51.512;5.386;2023-04-15T19:00:10;101703.47;;;10.11;85.51
64243;BME280;50573;51.512;5.386;2023-04-15T19:10:13;101708.22;;;10.00;84.01
64243;BME280;50573;51.512;5.386;2023-04-15T19:20:17;101720.75;;;9.91;84.46
64243;BME280;50573;51.512;5.386;2023-04-15T19:30:20;101745.97;;;9.57;87.26
64243;BME280;50573;51.512;5.386;2023-04-15T19:40:25;101760.78;;;9.49;87.65
64243;BME280;50573;51.512;5.386;2023-04-15T19:50:28;101758.53;;;9.41;88.10
64243;BME280;50573;51.512;5.386;2023-04-15T20:00:32;101771.81;;;9.32;89.17
64243;BME280;50573;51.512;5.386;2023-04-15T20:10:36;101768.66;;;9.37;89.75
64243;BME280;50573;51.512;5.386;2023-04-15T20:20:40;101779.09;;;9.42;89.85
64243;BME280;50573;51.512;5.386;2023-04-15T20:30:43;101777.19;;;9.35;91.73
64243;BME280;50573;51.512;5.386;2023-04-15T20:40:49;101771.81;;;9.32;91.96
64243;BME280;50573;51.512;5.386;2023-04-15T20:50:52;101778.88;;;9.22;92.58
64243;BME280;50573;51.512;5.386;2023-04-15T21:00:56;101797.56;;;9.13;92.19
64243;BME280;50573;51.512;5.386;2023-04-15T21:11:00;101789.03;;;9.11;92.98
64243;BME280;50573;51.512;5.386;2023-04-15T21:21:04;101802.66;;;9.04;94.00
64243;BME280;50573;51.512;5.386;2023-04-15T21:31:07;101806.56;;;9.00;95.00
64243;BME280;50573;51.512;5.386;2023-04-15T21:41:12;101819.47;;;8.82;97.57
64243;BME280;50573;51.512;5.386;2023-04-15T21:51:15;101821.09;;;8.65;100.00
64243;BME280;50573;51.512;5.386;2023-04-15T22:01:19;101829.66;;;8.50;100.00
64243;BME280;50573;51.512;5.386;2023-04-15T22:11:23;101824.66;;;8.37;100.00
64243;BME280;50573;51.512;5.386;2023-04-15T22:21:30;101818.06;;;8.38;100.00
64243;BME280;50573;51.512;5.386;2023-04-15T22:31:33;101823.09;;;8.36;100.00
64243;BME280;50573;51.512;5.386;2023-04-15T22:41:38;101838.63;;;8.32;100.00
64243;BME280;50573;51.512;5.386;2023-04-15T22:51:42;101852.97;;;8.36;100.00
64243;BME280;50573;51.512;5.386;2023-04-15T23:01:46;101866.97;;;8.28;100.00
64243;BME280;50573;51.512;5.386;2023-04-15T23:11:50;101875.88;;;8.25;100.00
64243;BME280;50573;51.512;5.386;2023-04-15T23:21:54;101872.75;;;8.19;100.00
64243;BME280;50573;51.512;5.386;2023-04-15T23:31:57;101882.47;;;8.13;100.00
64243;BME280;50573;51.512;5.386;2023-04-15T23:42:02;101888.66;;;8.10;100.00
64243;BME280;50573;51.512;5.386;2023-04-15T23:52:05;101898.72;;;7.99;100.00
